createdAt,value
2018-05-11T00:00:59.644Z,12.7
2018-05-11T00:02:06.845Z,12.7
2018-05-11T00:03:13.787Z,12.6
2018-05-11T00:04:20.988Z,12.6
2018-05-11T00:05:27.920Z,12.6
2018-05-11T00:06:34.588Z,12.6
2018-05-11T00:07:41.787Z,12.5
2018-05-11T00:08:48.993Z,12.5
2018-05-11T00:09:56.198Z,12.5
2018-05-11T00:11:03.406Z,12.5
2018-05-11T00:12:10.618Z,12.5
2018-05-11T00:13:17.545Z,12.4
2018-05-11T00:14:24.749Z,12.4
2018-05-11T00:15:31.726Z,12.4
2018-05-11T00:16:38.933Z,12.3
2018-05-11T00:17:46.139Z,12.3
2018-05-11T00:18:53.355Z,12.3
2018-05-11T00:20:00.569Z,12.3
2018-05-11T00:21:07.775Z,12.2
2018-05-11T00:22:14.979Z,12.2
2018-05-11T00:23:22.349Z,12.2
2018-05-11T00:24:29.730Z,12.2
2018-05-11T00:25:36.933Z,12.2
2018-05-11T00:26:44.136Z,12.2
2018-05-11T00:27:51.344Z,12.2
2018-05-11T00:28:58.548Z,12.2
2018-05-11T00:30:05.751Z,12.1
2018-05-11T00:31:12.957Z,12.1
2018-05-11T00:32:20.162Z,12.1
2018-05-11T00:33:27.093Z,12.1
2018-05-11T00:34:34.293Z,12.1
2018-05-11T00:35:41.221Z,12.1
2018-05-11T00:36:48.431Z,12.1
2018-05-11T00:37:55.634Z,12.1
2018-05-11T00:39:02.838Z,12.1
2018-05-11T00:40:10.042Z,12.1
2018-05-11T00:41:17.246Z,12.2
2018-05-11T00:42:24.449Z,12.2
2018-05-11T00:43:31.659Z,12.1
2018-05-11T00:44:38.869Z,12.2
2018-05-11T00:45:45.799Z,12.2
2018-05-11T00:46:52.742Z,12.1
2018-05-11T00:47:59.928Z,12.1
2018-05-11T00:49:07.131Z,12.1
2018-05-11T00:50:14.343Z,12.1
2018-05-11T00:51:21.549Z,12.1
2018-05-11T00:52:28.482Z,12.1
2018-05-11T00:53:35.687Z,12.2
2018-05-11T00:54:42.908Z,12.2
2018-05-11T00:55:50.201Z,12.1
2018-05-11T00:56:57.408Z,12.1
2018-05-11T00:58:04.617Z,12.1
2018-05-11T00:59:11.825Z,12.1
2018-05-11T01:00:19.036Z,12.1
2018-05-11T01:01:26.242Z,12.1
2018-05-11T01:02:33.444Z,12.1
2018-05-11T01:03:40.653Z,12.1
2018-05-11T01:04:47.584Z,12
2018-05-11T01:05:54.789Z,12
2018-05-11T01:07:01.998Z,12
2018-05-11T01:08:08.928Z,12
2018-05-11T01:09:16.139Z,12
2018-05-11T01:10:23.343Z,12
2018-05-11T01:11:30.549Z,12
2018-05-11T01:12:37.756Z,12
2018-05-11T01:13:44.963Z,12.1
2018-05-11T01:14:52.169Z,12
2018-05-11T01:15:59.366Z,12
2018-05-11T01:17:06.311Z,12
2018-05-11T01:18:13.510Z,12
2018-05-11T01:19:20.720Z,12
2018-05-11T01:20:27.949Z,12
2018-05-11T01:21:35.154Z,11.9
2018-05-11T01:22:42.382Z,11.9
2018-05-11T01:23:49.590Z,11.9
2018-05-11T01:24:56.814Z,11.9
2018-05-11T01:26:04.021Z,11.9
2018-05-11T01:27:11.222Z,11.9
2018-05-11T01:28:18.425Z,11.9
2018-05-11T01:29:25.631Z,11.9
2018-05-11T01:30:32.839Z,11.9
2018-05-11T01:31:40.046Z,11.9
2018-05-11T01:32:47.254Z,11.9
2018-05-11T01:33:54.460Z,11.9
2018-05-11T01:35:01.665Z,11.8
2018-05-11T01:36:08.601Z,11.8
2018-05-11T01:37:15.807Z,11.9
2018-05-11T01:38:22.738Z,11.9
2018-05-11T01:39:29.944Z,11.9
2018-05-11T01:40:37.145Z,11.9
2018-05-11T01:41:44.080Z,11.9
2018-05-11T01:42:51.283Z,11.9
2018-05-11T01:43:58.489Z,11.9
2018-05-11T01:45:05.695Z,11.9
2018-05-11T01:46:12.903Z,11.9
2018-05-11T01:47:20.118Z,11.9
2018-05-11T01:48:27.314Z,11.9
2018-05-11T01:49:34.521Z,11.9
2018-05-11T01:50:41.723Z,11.9
2018-05-11T01:51:48.929Z,11.9
2018-05-11T01:52:56.137Z,11.9
2018-05-11T01:54:03.339Z,11.9
2018-05-11T01:55:10.541Z,11.9
2018-05-11T01:56:17.748Z,11.9
2018-05-11T01:57:24.954Z,11.9
2018-05-11T01:58:32.153Z,12
2018-05-11T01:59:39.084Z,12
2018-05-11T02:00:46.292Z,12
2018-05-11T02:01:53.492Z,12
2018-05-11T02:03:00.697Z,12
2018-05-11T02:04:07.896Z,11.9
2018-05-11T02:05:15.102Z,11.9
2018-05-11T02:06:22.310Z,12
2018-05-11T02:07:29.514Z,12
2018-05-11T02:08:36.717Z,12
2018-05-11T02:09:43.943Z,12
2018-05-11T02:10:51.152Z,12.1
2018-05-11T02:11:58.363Z,12.1
2018-05-11T02:13:05.571Z,12
2018-05-11T02:14:12.778Z,12
2018-05-11T02:15:19.707Z,12
2018-05-11T02:16:26.912Z,12
2018-05-11T02:17:34.114Z,12
2018-05-11T02:18:41.406Z,12
2018-05-11T02:19:48.759Z,12
2018-05-11T02:20:55.959Z,12.1
2018-05-11T02:22:03.163Z,12.1
2018-05-11T02:23:10.091Z,12
2018-05-11T02:24:17.297Z,12.1
2018-05-11T02:25:24.508Z,12.1
2018-05-11T02:26:31.712Z,12.1
2018-05-11T02:27:38.918Z,12.1
2018-05-11T02:28:45.853Z,12.1
2018-05-11T02:29:53.065Z,12
2018-05-11T02:31:00.264Z,12
2018-05-11T02:32:07.470Z,12
2018-05-11T02:33:14.672Z,12
2018-05-11T02:34:21.876Z,12
2018-05-11T02:35:28.812Z,12
2018-05-11T02:36:36.012Z,12
2018-05-11T02:37:43.219Z,11.9
2018-05-11T02:38:50.439Z,11.9
2018-05-11T02:39:57.649Z,11.8
2018-05-11T02:41:04.855Z,11.8
2018-05-11T02:42:12.067Z,11.8
2018-05-11T02:43:18.999Z,11.8
2018-05-11T02:44:26.200Z,11.9
2018-05-11T02:45:33.120Z,11.8
2018-05-11T02:46:39.775Z,11.8
2018-05-11T02:47:46.981Z,11.8
2018-05-11T02:48:54.188Z,11.8
2018-05-11T02:50:01.428Z,11.7
2018-05-11T02:51:08.622Z,11.7
2018-05-11T02:52:15.852Z,11.7
2018-05-11T02:53:23.058Z,11.7
2018-05-11T02:54:30.315Z,11.6
2018-05-11T02:55:37.524Z,11.6
2018-05-11T02:56:44.734Z,11.6
2018-05-11T02:57:51.944Z,11.6
2018-05-11T02:58:59.148Z,11.6
2018-05-11T03:00:06.354Z,11.6
2018-05-11T03:01:13.568Z,11.6
2018-05-11T03:02:20.772Z,11.6
2018-05-11T03:03:27.973Z,11.6
2018-05-11T03:04:35.178Z,11.5
2018-05-11T03:05:42.585Z,11.6
2018-05-11T03:06:49.792Z,11.6
2018-05-11T03:07:57.001Z,11.6
2018-05-11T03:09:04.201Z,11.6
2018-05-11T03:10:11.407Z,11.7
2018-05-11T03:11:18.611Z,11.6
2018-05-11T03:12:25.815Z,11.6
2018-05-11T03:13:32.743Z,11.7
2018-05-11T03:14:39.945Z,11.6
2018-05-11T03:15:47.160Z,11.7
2018-05-11T03:16:54.362Z,11.6
2018-05-11T03:18:01.575Z,11.6
2018-05-11T03:19:08.784Z,11.6
2018-05-11T03:20:16.057Z,11.6
2018-05-11T03:21:23.261Z,11.6
2018-05-11T03:22:30.461Z,11.5
2018-05-11T03:23:37.421Z,11.5
2018-05-11T03:24:44.624Z,11.5
2018-05-11T03:25:51.833Z,11.5
2018-05-11T03:26:59.109Z,11.5
2018-05-11T03:28:06.335Z,11.4
2018-05-11T03:29:13.546Z,11.4
2018-05-11T03:30:20.977Z,11.4
2018-05-11T03:31:28.167Z,11.4
2018-05-11T03:32:35.376Z,11.3
2018-05-11T03:33:42.577Z,11.3
2018-05-11T03:34:49.783Z,11.3
2018-05-11T03:35:56.988Z,11.2
2018-05-11T03:37:04.200Z,11.2
2018-05-11T03:38:11.407Z,11.1
2018-05-11T03:39:18.615Z,11.1
2018-05-11T03:40:25.820Z,11.1
2018-05-11T03:41:33.029Z,11
2018-05-11T03:42:40.236Z,11
2018-05-11T03:43:47.527Z,10.9
2018-05-11T03:44:54.730Z,10.9
2018-05-11T03:46:01.941Z,10.9
2018-05-11T03:47:09.136Z,10.9
2018-05-11T03:48:16.343Z,10.8
2018-05-11T03:49:23.548Z,10.8
2018-05-11T03:50:30.755Z,10.8
2018-05-11T03:51:37.962Z,10.7
2018-05-11T03:52:45.164Z,10.7
2018-05-11T03:53:52.368Z,10.7
2018-05-11T03:54:59.311Z,10.7
2018-05-11T03:56:06.518Z,10.7
2018-05-11T03:57:13.727Z,10.6
2018-05-11T03:58:20.664Z,10.6
2018-05-11T03:59:27.866Z,10.6
2018-05-11T04:00:35.072Z,10.5
2018-05-11T04:01:42.288Z,10.5
2018-05-11T04:02:49.488Z,10.5
2018-05-11T04:03:56.697Z,10.4
2018-05-11T04:05:03.356Z,10.4
2018-05-11T04:06:10.555Z,10.4
2018-05-11T04:07:17.761Z,10.4
2018-05-11T04:08:24.965Z,10.4
2018-05-11T04:09:32.168Z,10.4
2018-05-11T04:10:39.375Z,10.4
2018-05-11T04:11:46.318Z,10.4
2018-05-11T04:12:53.534Z,10.3
2018-05-11T04:14:00.749Z,10.3
2018-05-11T04:15:07.690Z,10.3
2018-05-11T04:16:14.895Z,10.3
2018-05-11T04:17:22.103Z,10.3
2018-05-11T04:18:29.311Z,10.3
2018-05-11T04:19:36.521Z,10.3
2018-05-11T04:20:43.873Z,10.3
2018-05-11T04:21:51.231Z,10.2
2018-05-11T04:22:58.161Z,10.2
2018-05-11T04:24:05.374Z,10.2
2018-05-11T04:25:12.588Z,10.2
2018-05-11T04:26:19.526Z,10.2
2018-05-11T04:27:26.739Z,10.2
2018-05-11T04:28:33.945Z,10.1
2018-05-11T04:29:41.151Z,10.1
2018-05-11T04:30:48.356Z,10.1
2018-05-11T04:31:55.561Z,10
2018-05-11T04:33:02.776Z,10.1
2018-05-11T04:34:09.977Z,10.1
2018-05-11T04:35:16.902Z,10.1
2018-05-11T04:36:24.111Z,10.1
2018-05-11T04:37:31.315Z,10.1
2018-05-11T04:38:38.519Z,10
2018-05-11T04:39:45.724Z,10.1
2018-05-11T04:40:52.935Z,10.1
2018-05-11T04:42:00.141Z,10.1
2018-05-11T04:43:07.343Z,10.1
2018-05-11T04:44:14.555Z,10.1
2018-05-11T04:45:21.827Z,10.2
2018-05-11T04:46:29.299Z,10.2
2018-05-11T04:47:36.243Z,10.2
2018-05-11T04:48:43.440Z,10.2
2018-05-11T04:49:50.650Z,10.2
2018-05-11T04:50:57.859Z,10.2
2018-05-11T04:52:05.075Z,10.2
2018-05-11T04:53:12.276Z,10.2
2018-05-11T04:54:19.493Z,10.3
2018-05-11T04:55:26.700Z,10.3
2018-05-11T04:56:33.906Z,10.4
2018-05-11T04:57:40.848Z,10.4
2018-05-11T04:58:48.053Z,10.4
2018-05-11T04:59:55.265Z,10.4
2018-05-11T05:01:02.477Z,10.5
2018-05-11T05:02:09.691Z,10.5
2018-05-11T05:03:16.886Z,10.6
2018-05-11T05:04:23.809Z,10.6
2018-05-11T05:05:31.014Z,10.6
2018-05-11T05:06:38.216Z,10.7
2018-05-11T05:07:45.419Z,10.7
2018-05-11T05:08:52.628Z,10.8
2018-05-11T05:09:59.831Z,10.8
2018-05-11T05:11:07.032Z,10.9
2018-05-11T05:12:14.239Z,10.9
2018-05-11T05:13:21.512Z,10.9
2018-05-11T05:14:28.721Z,11
2018-05-11T05:15:35.929Z,11
2018-05-11T05:16:42.861Z,11.1
2018-05-11T05:17:50.060Z,11.2
2018-05-11T05:18:57.267Z,11.3
2018-05-11T05:20:04.549Z,11.4
2018-05-11T05:21:11.756Z,11.4
2018-05-11T05:22:18.961Z,11.5
2018-05-11T05:23:26.244Z,11.6
2018-05-11T05:24:33.181Z,11.6
2018-05-11T05:25:40.387Z,11.7
2018-05-11T05:26:47.591Z,11.6
2018-05-11T05:27:54.522Z,11.6
2018-05-11T05:29:01.479Z,11.6
2018-05-11T05:30:08.428Z,11.7
2018-05-11T05:31:15.630Z,11.8
2018-05-11T05:32:22.559Z,11.8
2018-05-11T05:33:29.759Z,11.9
2018-05-11T05:34:36.982Z,12
2018-05-11T05:35:44.186Z,12
2018-05-11T05:36:51.389Z,12.2
2018-05-11T05:37:58.602Z,12.2
2018-05-11T05:39:05.959Z,12.2
2018-05-11T05:40:13.006Z,12.3
2018-05-11T05:41:19.942Z,12.4
2018-05-11T05:42:27.144Z,12.4
2018-05-11T05:43:34.354Z,12.4
2018-05-11T05:44:41.607Z,12.5
2018-05-11T05:45:48.825Z,12.6
2018-05-11T05:46:56.093Z,12.6
2018-05-11T05:48:03.293Z,12.7
2018-05-11T05:49:10.519Z,12.8
2018-05-11T05:50:17.718Z,13
2018-05-11T05:51:24.653Z,13.1
2018-05-11T05:52:31.866Z,13.1
2018-05-11T05:53:39.118Z,13.1
2018-05-11T05:54:46.328Z,13.2
2018-05-11T05:55:53.535Z,13.2
2018-05-11T05:57:00.487Z,13.2
2018-05-11T05:58:07.411Z,13.2
2018-05-11T05:59:14.614Z,13.2
2018-05-11T06:00:21.819Z,13.2
2018-05-11T06:01:29.032Z,13.2
2018-05-11T06:02:36.356Z,13.3
2018-05-11T06:03:43.629Z,13.3
2018-05-11T06:04:50.836Z,13.4
2018-05-11T06:05:58.041Z,13.4
2018-05-11T06:07:04.967Z,13.5
2018-05-11T06:08:12.262Z,13.7
2018-05-11T06:09:19.633Z,13.8
2018-05-11T06:10:26.838Z,13.8
2018-05-11T06:11:34.045Z,13.8
2018-05-11T06:12:40.981Z,13.9
2018-05-11T06:13:48.187Z,14.1
2018-05-11T06:14:55.397Z,14.2
2018-05-11T06:16:02.606Z,14.4
2018-05-11T06:17:09.266Z,14.5
2018-05-11T06:18:16.474Z,14.6
2018-05-11T06:19:23.677Z,14.6
2018-05-11T06:20:30.882Z,14.8
2018-05-11T06:21:38.104Z,15.1
2018-05-11T06:22:45.308Z,15.1
2018-05-11T06:23:52.581Z,15.2
2018-05-11T06:24:59.793Z,15.3
2018-05-11T06:26:21.645Z,15.3
2018-05-11T06:27:28.860Z,15.3
2018-05-11T06:28:36.069Z,15.6
2018-05-11T06:29:43.270Z,15.8
2018-05-11T06:30:50.480Z,15.9
2018-05-11T06:31:57.708Z,15.9
2018-05-11T06:33:04.669Z,16.1
2018-05-11T06:34:11.879Z,16.1
2018-05-11T06:35:19.084Z,16.1
2018-05-11T06:36:26.288Z,16.2
2018-05-11T06:37:33.498Z,16.4
2018-05-11T06:38:40.701Z,16.5
2018-05-11T06:39:47.357Z,16.5
2018-05-11T06:40:54.565Z,16.4
2018-05-11T06:42:01.773Z,16.6
2018-05-11T06:43:08.989Z,16.8
2018-05-11T06:44:16.197Z,16.5
2018-05-11T06:45:23.402Z,16.4
2018-05-11T06:46:30.612Z,16.4
2018-05-11T06:47:37.820Z,16.1
2018-05-11T06:48:45.025Z,15.7
2018-05-11T06:49:52.238Z,15.4
2018-05-11T06:50:59.187Z,15.5
2018-05-11T06:52:06.396Z,15.7
2018-05-11T06:53:13.609Z,16.1
2018-05-11T06:54:20.816Z,16.5
2018-05-11T06:55:27.788Z,16.7
2018-05-11T06:56:34.999Z,16.8
2018-05-11T06:57:42.227Z,17
2018-05-11T06:58:49.434Z,17.3
2018-05-11T06:59:56.647Z,17.4
2018-05-11T07:01:03.862Z,17.3
2018-05-11T07:02:11.075Z,17.1
2018-05-11T07:03:18.277Z,16.8
2018-05-11T07:04:25.554Z,16.6
2018-05-11T07:05:32.492Z,16.3
2018-05-11T07:06:39.698Z,15.7
2018-05-11T07:07:47.166Z,15.7
2018-05-11T07:08:54.788Z,16
2018-05-11T07:10:01.944Z,16.2
2018-05-11T07:11:09.155Z,16.6
2018-05-11T07:12:15.807Z,16.8
2018-05-11T07:13:23.019Z,16.8
2018-05-11T07:14:30.221Z,17
2018-05-11T07:15:37.428Z,16.4
2018-05-11T07:16:44.648Z,16.3
2018-05-11T07:17:51.579Z,16.6
2018-05-11T07:18:58.787Z,16.6
2018-05-11T07:20:05.997Z,16.5
2018-05-11T07:21:13.212Z,16.6
2018-05-11T07:22:20.148Z,16.6
2018-05-11T07:23:27.360Z,16.9
2018-05-11T07:24:34.302Z,17.1
2018-05-11T07:25:41.364Z,17.4
2018-05-11T07:26:48.794Z,17.3
2018-05-11T07:27:56.013Z,17.4
2018-05-11T07:29:03.223Z,17.7
2018-05-11T07:30:10.433Z,18.1
2018-05-11T07:31:17.647Z,17.8
2018-05-11T07:32:24.576Z,17.8
2018-05-11T07:33:31.518Z,18
2018-05-11T07:34:38.453Z,18.3
2018-05-11T07:35:45.383Z,18.5
2018-05-11T07:36:52.595Z,18.5
2018-05-11T07:37:59.809Z,18.1
2018-05-11T07:39:07.022Z,18.2
2018-05-11T07:40:13.980Z,18.2
2018-05-11T07:41:21.191Z,18.4
2018-05-11T07:42:28.404Z,18.1
2018-05-11T07:43:35.617Z,18
2018-05-11T07:44:42.551Z,17.7
2018-05-11T07:45:49.551Z,17.4
2018-05-11T07:46:56.484Z,17.5
2018-05-11T07:48:03.695Z,17.8
2018-05-11T07:49:10.902Z,18.4
2018-05-11T07:50:18.120Z,18.7
2018-05-11T07:51:25.330Z,18.3
2018-05-11T07:52:32.379Z,18.2
2018-05-11T07:53:39.593Z,18.4
2018-05-11T07:54:46.808Z,18.7
2018-05-11T07:55:54.021Z,19
2018-05-11T07:57:01.232Z,19
2018-05-11T07:58:08.447Z,18.7
2018-05-11T07:59:15.656Z,18.6
2018-05-11T08:00:22.868Z,18.9
2018-05-11T08:01:30.078Z,18.6
2018-05-11T08:02:37.290Z,18.7
2018-05-11T08:03:44.503Z,18.2
2018-05-11T08:04:51.714Z,18.2
2018-05-11T08:05:58.919Z,18
2018-05-11T08:07:06.203Z,18.1
2018-05-11T08:08:13.436Z,18.1
2018-05-11T08:09:20.640Z,18
2018-05-11T08:10:27.855Z,17.9
2018-05-11T08:11:35.073Z,18.2
2018-05-11T08:12:42.293Z,18.2
2018-05-11T08:13:48.970Z,18.3
2018-05-11T08:14:55.902Z,18.6
2018-05-11T08:16:03.118Z,18.8
2018-05-11T08:17:10.328Z,18.9
2018-05-11T08:18:17.268Z,18.9
2018-05-11T08:19:24.207Z,19.3
2018-05-11T08:20:31.146Z,19.7
2018-05-11T08:21:38.124Z,19.8
2018-05-11T08:22:45.326Z,19.5
2018-05-11T08:23:52.266Z,19.3
2018-05-11T08:24:59.202Z,19
2018-05-11T08:26:06.411Z,18.6
2018-05-11T08:27:13.647Z,18.7
2018-05-11T08:28:20.591Z,18.9
2018-05-11T08:29:27.524Z,19.1
2018-05-11T08:30:34.736Z,19.2
2018-05-11T08:31:41.678Z,19.7
2018-05-11T08:32:48.917Z,20.3
2018-05-11T08:33:55.581Z,20.5
2018-05-11T08:35:02.608Z,20.3
2018-05-11T08:36:09.822Z,20.1
2018-05-11T08:37:17.042Z,19.8
2018-05-11T08:38:24.251Z,19.2
2018-05-11T08:39:31.180Z,18.9
2018-05-11T08:40:38.392Z,19
2018-05-11T08:41:45.331Z,19.1
2018-05-11T08:42:52.540Z,19.4
2018-05-11T08:43:59.753Z,19.1
2018-05-11T08:45:06.725Z,19
2018-05-11T08:46:13.928Z,18.8
2018-05-11T08:47:21.138Z,18.9
2018-05-11T08:48:28.356Z,19.5
2018-05-11T08:49:35.559Z,19.7
2018-05-11T08:50:42.769Z,19.9
2018-05-11T08:51:50.081Z,20
2018-05-11T08:52:57.460Z,20.5
2018-05-11T08:54:04.669Z,20.8
2018-05-11T08:55:11.889Z,20.9
2018-05-11T08:56:19.161Z,21
2018-05-11T08:57:26.373Z,21.4
2018-05-11T08:58:33.584Z,20.7
2018-05-11T08:59:40.519Z,20.6
2018-05-11T09:00:47.732Z,21
2018-05-11T09:01:54.939Z,21.3
2018-05-11T09:03:01.658Z,21.6
2018-05-11T09:04:08.981Z,22.1
2018-05-11T09:05:16.196Z,22.4
2018-05-11T09:06:23.414Z,22.6
2018-05-11T09:07:30.623Z,22.6
2018-05-11T09:08:37.972Z,22.3
2018-05-11T09:09:45.307Z,22
2018-05-11T09:10:52.526Z,22.1
2018-05-11T09:11:59.739Z,22.3
2018-05-11T09:13:06.958Z,22.2
2018-05-11T09:14:14.173Z,22
2018-05-11T09:15:21.608Z,22
2018-05-11T09:16:28.822Z,22
2018-05-11T09:17:36.038Z,21.4
2018-05-11T09:18:43.256Z,21
2018-05-11T09:19:50.474Z,20.9
2018-05-11T09:20:57.685Z,21.1
2018-05-11T09:22:05.118Z,21.3
2018-05-11T09:23:12.504Z,20.6
2018-05-11T09:24:19.444Z,20.3
2018-05-11T09:25:26.379Z,19.9
2018-05-11T09:26:33.775Z,19.8
2018-05-11T09:27:55.645Z,19.8
2018-05-11T09:29:02.866Z,20.2
2018-05-11T09:30:10.557Z,19.8
2018-05-11T09:31:17.874Z,19.8
2018-05-11T09:32:25.107Z,20.1
2018-05-11T09:33:32.323Z,20.8
2018-05-11T09:34:39.543Z,21.2
2018-05-11T09:35:46.755Z,21.6
2018-05-11T09:36:53.972Z,21.9
2018-05-11T09:38:01.211Z,22.1
2018-05-11T09:39:08.409Z,22.3
2018-05-11T09:40:15.351Z,21.5
2018-05-11T09:41:22.571Z,21
2018-05-11T09:42:29.787Z,20.9
2018-05-11T09:43:37.007Z,20.3
2018-05-11T09:44:44.236Z,20.2
2018-05-11T09:45:51.448Z,20.7
2018-05-11T09:46:58.666Z,20.8
2018-05-11T09:48:05.890Z,21.5
2018-05-11T09:49:13.138Z,21.6
2018-05-11T09:50:20.354Z,21.6
2018-05-11T09:51:27.571Z,21.6
2018-05-11T09:52:34.790Z,21.6
2018-05-11T09:53:42.006Z,20.6
2018-05-11T09:54:48.946Z,20.6
2018-05-11T09:55:56.184Z,21
2018-05-11T09:57:03.395Z,21.5
2018-05-11T09:58:10.611Z,22.2
2018-05-11T09:59:17.822Z,22.6
2018-05-11T10:00:25.044Z,22.4
2018-05-11T10:01:32.252Z,22.5
2018-05-11T10:02:39.192Z,23
2018-05-11T10:03:46.404Z,23.6
2018-05-11T10:04:53.618Z,24.1
2018-05-11T10:06:00.837Z,24.3
2018-05-11T10:07:08.055Z,24.2
2018-05-11T10:08:14.994Z,24.2
2018-05-11T10:09:22.208Z,24.1
2018-05-11T10:10:29.138Z,24.2
2018-05-11T10:11:36.075Z,24.1
2018-05-11T10:12:43.293Z,23.7
2018-05-11T10:13:50.593Z,23.4
2018-05-11T10:14:57.677Z,23.5
2018-05-11T10:16:04.889Z,24
2018-05-11T10:17:12.109Z,24
2018-05-11T10:18:19.319Z,23.9
2018-05-11T10:19:26.533Z,23.9
2018-05-11T10:20:33.766Z,23.6
2018-05-11T10:21:40.977Z,23.9
2018-05-11T10:22:48.186Z,23
2018-05-11T10:23:55.124Z,23
2018-05-11T10:25:02.346Z,23
2018-05-11T10:26:09.559Z,23.5
2018-05-11T10:27:16.772Z,23.2
2018-05-11T10:28:23.984Z,23.2
2018-05-11T10:29:31.194Z,23.7
2018-05-11T10:30:38.451Z,24.2
2018-05-11T10:31:45.380Z,24.9
2018-05-11T10:32:52.598Z,25.4
2018-05-11T10:33:59.809Z,26.1
2018-05-11T10:35:07.025Z,25.7
2018-05-11T10:36:13.966Z,25.4
2018-05-11T10:37:21.178Z,24.7
2018-05-11T10:38:28.401Z,24.1
2018-05-11T10:39:35.337Z,24.2
2018-05-11T10:40:42.546Z,24.2
2018-05-11T10:41:49.770Z,24.3
2018-05-11T10:42:56.979Z,24.1
2018-05-11T10:44:04.196Z,24.3
2018-05-11T10:45:11.419Z,24.2
2018-05-11T10:46:18.640Z,24
2018-05-11T10:47:25.852Z,23.7
2018-05-11T10:48:33.045Z,23.7
2018-05-11T10:49:40.426Z,23.6
2018-05-11T10:50:47.644Z,24
2018-05-11T10:51:54.861Z,24.3
2018-05-11T10:53:01.804Z,24.2
2018-05-11T10:54:09.023Z,24.6
2018-05-11T10:55:16.237Z,24.8
2018-05-11T10:56:23.185Z,24.7
2018-05-11T10:57:30.395Z,24.3
2018-05-11T10:58:37.611Z,23.7
2018-05-11T10:59:44.835Z,23.4
2018-05-11T11:00:52.050Z,23.2
2018-05-11T11:01:59.269Z,23
2018-05-11T11:03:06.531Z,23.1
2018-05-11T11:04:13.746Z,23.2
2018-05-11T11:05:20.969Z,23.1
2018-05-11T11:06:28.183Z,22.9
2018-05-11T11:07:35.398Z,22.8
2018-05-11T11:08:42.612Z,23
2018-05-11T11:09:49.828Z,23.1
2018-05-11T11:10:57.042Z,23.4
2018-05-11T11:12:04.258Z,23.2
2018-05-11T11:13:11.478Z,23.1
2018-05-11T11:14:18.701Z,23.6
2018-05-11T11:15:25.920Z,23.8
2018-05-11T11:16:33.131Z,23.7
2018-05-11T11:17:40.345Z,23.7
2018-05-11T11:18:47.560Z,23.8
2018-05-11T11:19:54.585Z,23.8
2018-05-11T11:21:01.832Z,23.6
2018-05-11T11:22:08.778Z,23.3
2018-05-11T11:23:15.988Z,22.9
2018-05-11T11:24:23.212Z,22.2
2018-05-11T11:25:30.420Z,22.1
2018-05-11T11:26:37.078Z,22.4
2018-05-11T11:27:44.293Z,22.6
2018-05-11T11:28:51.498Z,22.7
2018-05-11T11:29:58.714Z,22.7
2018-05-11T11:31:05.928Z,22.8
2018-05-11T11:32:13.141Z,23.3
2018-05-11T11:33:20.351Z,23.2
2018-05-11T11:34:27.777Z,23
2018-05-11T11:35:35.365Z,22.8
2018-05-11T11:36:42.579Z,22.7
2018-05-11T11:37:49.947Z,22.7
2018-05-11T11:38:57.225Z,22.5
2018-05-11T11:40:04.437Z,22.5
2018-05-11T11:41:11.652Z,22.7
2018-05-11T11:42:18.910Z,22.9
2018-05-11T11:43:26.126Z,22.9
2018-05-11T11:44:33.067Z,22.5
2018-05-11T11:45:40.284Z,22.7
2018-05-11T11:46:47.495Z,23.1
2018-05-11T11:47:54.721Z,23.5
2018-05-11T11:49:01.944Z,23.9
2018-05-11T11:50:09.161Z,24.1
2018-05-11T11:51:16.377Z,24
2018-05-11T11:52:23.589Z,23.9
2018-05-11T11:53:30.532Z,24.4
2018-05-11T11:54:37.757Z,24.2
2018-05-11T11:55:44.975Z,24.1
2018-05-11T11:56:52.184Z,24.4
2018-05-11T11:57:59.399Z,24.4
2018-05-11T11:59:06.610Z,24.4
2018-05-11T12:00:13.824Z,23.9
2018-05-11T12:01:21.038Z,23.8
2018-05-11T12:02:28.255Z,23.3
2018-05-11T12:03:35.472Z,23
2018-05-11T12:04:42.689Z,23
2018-05-11T12:05:49.905Z,23.3
2018-05-11T12:06:57.120Z,24.1
2018-05-11T12:08:03.761Z,24.8
2018-05-11T12:09:10.972Z,25.5
2018-05-11T12:10:18.190Z,25.3
2018-05-11T12:11:25.402Z,25.3
2018-05-11T12:12:32.621Z,24.7
2018-05-11T12:13:39.856Z,24.6
2018-05-11T12:14:47.071Z,24.4
2018-05-11T12:15:54.292Z,24.2
2018-05-11T12:17:01.232Z,24.2
2018-05-11T12:18:08.442Z,24.1
2018-05-11T12:19:15.658Z,24
2018-05-11T12:20:22.607Z,24.1
2018-05-11T12:21:29.567Z,24.1
2018-05-11T12:22:36.511Z,23.9
2018-05-11T12:23:43.735Z,23.9
2018-05-11T12:24:50.952Z,24.2
2018-05-11T12:25:58.168Z,24.3
2018-05-11T12:27:05.390Z,24.5
2018-05-11T12:28:12.611Z,24.7
2018-05-11T12:29:19.833Z,24.7
2018-05-11T12:30:27.065Z,24.4
2018-05-11T12:31:34.283Z,24.2
2018-05-11T12:32:41.492Z,23.7
2018-05-11T12:33:48.705Z,23.6
2018-05-11T12:34:56.079Z,23.7
2018-05-11T12:36:03.480Z,23.8
2018-05-11T12:37:10.698Z,24.1
2018-05-11T12:38:17.989Z,24.3
2018-05-11T12:39:25.201Z,24.6
2018-05-11T12:40:32.419Z,24.6
2018-05-11T12:41:39.642Z,24.2
2018-05-11T12:42:46.856Z,23.8
2018-05-11T12:43:53.804Z,23.7
2018-05-11T12:45:01.043Z,23.9
2018-05-11T12:46:07.996Z,24.4
2018-05-11T12:47:15.211Z,24.8
2018-05-11T12:48:22.427Z,25.1
2018-05-11T12:49:29.362Z,25.3
2018-05-11T12:50:36.310Z,25.5
2018-05-11T12:51:43.548Z,25.4
2018-05-11T12:52:50.783Z,25.4
2018-05-11T12:53:57.825Z,25.3
2018-05-11T12:55:05.040Z,25.3
2018-05-11T12:56:12.258Z,25.4
2018-05-11T12:57:19.475Z,25.5
2018-05-11T12:58:26.706Z,25.3
2018-05-11T12:59:33.932Z,24.5
2018-05-11T13:00:41.148Z,24.1
2018-05-11T13:01:48.363Z,24.1
2018-05-11T13:02:55.316Z,23.7
2018-05-11T13:04:02.571Z,23.7
2018-05-11T13:05:09.794Z,23.7
2018-05-11T13:06:17.012Z,23.6
2018-05-11T13:07:24.238Z,23.6
2018-05-11T13:08:31.451Z,23.4
2018-05-11T13:09:38.670Z,23.5
2018-05-11T13:10:45.894Z,23.6
2018-05-11T13:11:52.835Z,23.5
2018-05-11T13:13:00.187Z,23.9
2018-05-11T13:14:07.535Z,24.4
2018-05-11T13:15:14.749Z,24.8
2018-05-11T13:16:21.707Z,25.2
2018-05-11T13:17:28.906Z,25.8
2018-05-11T13:18:36.126Z,26
2018-05-11T13:19:43.068Z,25.3
2018-05-11T13:20:50.600Z,24.6
2018-05-11T13:21:58.139Z,24.4
2018-05-11T13:23:05.354Z,24.4
2018-05-11T13:24:12.569Z,24.7
2018-05-11T13:25:19.785Z,24.8
2018-05-11T13:26:26.999Z,24.7
2018-05-11T13:27:34.221Z,24.7
2018-05-11T13:28:41.441Z,24.4
2018-05-11T13:29:48.661Z,24.6
2018-05-11T13:30:55.882Z,24.6
2018-05-11T13:32:02.820Z,24.8
2018-05-11T13:33:10.034Z,24.5
2018-05-11T13:34:17.254Z,24.4
2018-05-11T13:35:24.471Z,24.7
2018-05-11T13:36:31.769Z,24.8
2018-05-11T13:37:39.246Z,24.8
2018-05-11T13:38:46.276Z,24.6
2018-05-11T13:39:53.492Z,24.9
2018-05-11T13:41:00.711Z,25.4
2018-05-11T13:42:08.050Z,25.6
2018-05-11T13:43:15.434Z,25.7
2018-05-11T13:44:22.396Z,26.3
2018-05-11T13:45:29.615Z,26.8
2018-05-11T13:46:36.909Z,27
2018-05-11T13:47:44.122Z,26.6
2018-05-11T13:48:51.353Z,26.3
2018-05-11T13:49:58.554Z,26.1
2018-05-11T13:51:05.767Z,25.9
2018-05-11T13:52:12.710Z,25.9
2018-05-11T13:53:19.651Z,26
2018-05-11T13:54:26.870Z,25.5
2018-05-11T13:55:34.083Z,24.9
2018-05-11T13:56:41.506Z,24.4
2018-05-11T13:57:48.718Z,24.5
2018-05-11T13:58:55.940Z,24.6
2018-05-11T14:00:03.163Z,24.7
2018-05-11T14:01:10.376Z,24.4
2018-05-11T14:02:17.588Z,24.6
2018-05-11T14:03:24.829Z,24.7
2018-05-11T14:04:31.903Z,24.6
2018-05-11T14:05:39.157Z,24.4
2018-05-11T14:06:46.373Z,24.2
2018-05-11T14:07:53.309Z,23.9
2018-05-11T14:09:00.571Z,23.8
2018-05-11T14:10:07.774Z,23.8
2018-05-11T14:11:14.787Z,23.8
2018-05-11T14:12:22.002Z,23.9
2018-05-11T14:13:29.217Z,24
2018-05-11T14:14:36.431Z,24
2018-05-11T14:15:43.651Z,24.1
2018-05-11T14:16:50.868Z,24.1
2018-05-11T14:17:58.088Z,24.2
2018-05-11T14:19:05.307Z,24
2018-05-11T14:20:12.249Z,23.7
2018-05-11T14:21:19.463Z,23.6
2018-05-11T14:22:26.403Z,23.2
2018-05-11T14:23:33.618Z,23.1
2018-05-11T14:24:40.592Z,22.9
2018-05-11T14:25:47.803Z,22.9
2018-05-11T14:26:55.022Z,23
2018-05-11T14:28:02.233Z,23.3
2018-05-11T14:29:09.452Z,23.3
2018-05-11T14:30:16.671Z,23.3
2018-05-11T14:31:23.601Z,23.2
2018-05-11T14:32:30.821Z,23.3
2018-05-11T14:33:38.037Z,23.3
2018-05-11T14:34:45.245Z,23.1
2018-05-11T14:35:52.459Z,22.8
2018-05-11T14:36:59.674Z,22.8
2018-05-11T14:38:06.896Z,22.6
2018-05-11T14:39:13.617Z,22.6
2018-05-11T14:40:20.572Z,22.7
2018-05-11T14:41:27.785Z,23
2018-05-11T14:42:34.728Z,23
2018-05-11T14:43:42.020Z,22.9
2018-05-11T14:44:49.310Z,22.9
2018-05-11T14:45:56.248Z,23.2
2018-05-11T14:47:03.467Z,23.2
2018-05-11T14:48:10.687Z,23
2018-05-11T14:49:17.904Z,22.7
2018-05-11T14:50:25.124Z,22.2
2018-05-11T14:51:32.337Z,22.2
2018-05-11T14:52:39.552Z,22.4
2018-05-11T14:53:46.769Z,22.5
2018-05-11T14:54:53.984Z,22.6
2018-05-11T14:56:01.194Z,22.8
2018-05-11T14:57:08.412Z,22.9
2018-05-11T14:58:15.355Z,22.7
2018-05-11T14:59:22.572Z,22.7
2018-05-11T15:00:29.792Z,22.2
2018-05-11T15:01:37.002Z,22